Airfield :
LOGIN :

Register | Disclaimer

   EN    FR    IT 

 










Legend :    VFR   Marginal VFR   IFR   Intensive IFR   Very Intensive IFR
Visi :
Ceiling :
>= 8 km
>= 3000ft
5 to 8 km
1000 to 3000 ft
1500m to 5 km
500 to 1000 ft
800 to 1500m
200 to 500 ft
< 800m
< 200 ft
Symbols :   Thunderstorms  Fog  Heavy snow  Heavy precipitations  Wind > 20 kt
SIGMETs :     Misc.  Thunderstorms  Icing  Turbulence  Mountain Waves  Volcanic Ashes






- Airport Elevation : 28 ft
- IATA code : SOZ


LFKS - Solenzara

CURRENT METAR :
  • 260800Z AUTO 35005KT 280V020 CAVOK 09/M03 Q1016

EXPIRED METARs :
  • 260730Z AUTO 29003KT 250V360 CAVOK 07/M03 Q1015
  • 260700Z AUTO 33008KT CAVOK 09/M04 Q1014
  • 260630Z AUTO 33008KT CAVOK 09/M04 Q1014
  • 260600Z AUTO 33007KT 300V360 CAVOK 08/M04 Q1013
  • 260530Z AUTO 26004KT CAVOK 05/M04 Q1013

TAF AMD TAF LFKS
Valid from the 26 at 06:00 until the 27 at 03:00 UTC


260600Z 2606/2703 33010KT CAVOK
BECMG 2616/2618 27005KT



MET'MAP, your aeronautical weather chart ! - Copyright ORBIFLY December 2007 - Disclaimer

ORBIFLY MET'MAP TEAM :

Programming & Development : Alexandra Zaïnal
Concept & original design : Baudouin d'Aumeries
Assistance for programming : Marc-Olivier Méhu
Technical & hardware support : Manuel Goepfert

Contact : metmap@orbifly.com




SOURCES & CREDITS :

   NOAA